createdAt,value
2022-10-05T00:00:59.026Z,33.10
2022-10-05T00:03:38.225Z,25.35
2022-10-05T00:06:07.051Z,34.85
2022-10-05T00:08:35.814Z,29.45
2022-10-05T00:11:07.177Z,33.58
2022-10-05T00:13:35.326Z,27.85
2022-10-05T00:16:17.303Z,29.83
2022-10-05T00:18:55.368Z,37.72
2022-10-05T00:21:25.923Z,35.17
2022-10-05T00:23:57.315Z,27.42
2022-10-05T00:26:28.044Z,30.85
2022-10-05T00:28:56.575Z,31.77
2022-10-05T00:31:27.383Z,30.20
2022-10-05T00:33:56.176Z,29.23
2022-10-05T00:36:26.493Z,29.48
2022-10-05T00:38:54.929Z,32.95
2022-10-05T00:41:31.673Z,32.38
2022-10-05T00:44:04.236Z,30.40
2022-10-05T00:47:02.540Z,29.58
2022-10-05T00:49:41.759Z,36.80
2022-10-05T00:52:37.955Z,30.58
2022-10-05T00:55:26.090Z,28.13
2022-10-05T00:58:19.188Z,27.95
2022-10-05T01:00:55.060Z,27.88
2022-10-05T01:03:34.338Z,30.88
2022-10-05T01:06:22.644Z,30.40
2022-10-05T01:09:02.261Z,28.92
2022-10-05T01:11:40.526Z,26.90
2022-10-05T01:14:22.894Z,24.73
2022-10-05T01:17:00.679Z,27.13
2022-10-05T01:19:48.449Z,29.92
2022-10-05T01:22:28.824Z,26.23
2022-10-05T01:25:24.562Z,22.63
2022-10-05T01:28:05.201Z,32.75
2022-10-05T01:30:57.675Z,19.55
2022-10-05T01:33:47.262Z,26.55
2022-10-05T01:36:35.340Z,22.30
2022-10-05T01:39:18.014Z,28.13
2022-10-05T01:41:57.611Z,25.73
2022-10-05T01:44:33.844Z,25.02
2022-10-05T01:47:12.267Z,27.90
2022-10-05T01:50:31.242Z,27.70
2022-10-05T01:53:22.530Z,27.88
2022-10-05T01:56:12.082Z,25.83
2022-10-05T01:58:44.181Z,24.25
2022-10-05T02:01:50.645Z,26.13
2022-10-05T02:05:00.559Z,29.02
2022-10-05T02:07:44.623Z,28.10
2022-10-05T02:10:39.451Z,26.45
2022-10-05T02:13:41.859Z,28.58
2022-10-05T02:16:41.694Z,26.38
2022-10-05T02:19:25.757Z,27.63
2022-10-05T02:22:07.172Z,24.70
2022-10-05T02:24:46.657Z,26.10
2022-10-05T02:27:20.552Z,30.35
2022-10-05T02:29:53.837Z,30.23
2022-10-05T02:32:25.311Z,28.98
2022-10-05T02:34:54.578Z,29.33
2022-10-05T02:37:54.804Z,29.98
2022-10-05T02:40:38.189Z,28.00
2022-10-05T02:43:13.489Z,25.08
2022-10-05T02:46:03.870Z,35.53
2022-10-05T02:48:40.547Z,26.48
2022-10-05T02:51:18.038Z,29.35
2022-10-05T02:54:24.889Z,27.13
2022-10-05T02:57:30.755Z,25.67
2022-10-05T03:00:18.363Z,24.40
2022-10-05T03:02:57.578Z,29.67
2022-10-05T03:05:40.484Z,24.05
2022-10-05T03:08:19.119Z,22.83
2022-10-05T03:11:13.873Z,25.52
2022-10-05T03:14:00.711Z,30.25
2022-10-05T03:16:48.085Z,28.55
2022-10-05T03:19:27.075Z,33.05
2022-10-05T03:22:01.517Z,26.90
2022-10-05T03:24:55.601Z,23.30
2022-10-05T03:27:44.354Z,30.52
2022-10-05T03:30:23.647Z,23.60
2022-10-05T03:33:12.518Z,24.20
2022-10-05T03:36:08.311Z,28.67
2022-10-05T03:38:45.643Z,30.75
2022-10-05T03:41:47.811Z,32.53
2022-10-05T03:44:38.050Z,27.40
2022-10-05T03:47:09.491Z,29.40
2022-10-05T03:50:03.497Z,27.85
2022-10-05T03:52:57.334Z,27.33
2022-10-05T03:55:50.043Z,19.98
2022-10-05T03:58:28.973Z,28.65
2022-10-05T04:01:03.113Z,31.23
2022-10-05T04:03:31.920Z,27.08
2022-10-05T04:06:04.606Z,28.00
2022-10-05T04:11:14.374Z,26.25
2022-10-05T04:14:02.972Z,22.95
2022-10-05T04:16:56.094Z,26.27
2022-10-05T04:19:28.746Z,24.38
2022-10-05T04:22:08.325Z,36.58
2022-10-05T04:24:57.539Z,33.63
2022-10-05T04:27:33.011Z,34.10
2022-10-05T04:30:20.144Z,23.20
2022-10-05T04:32:59.551Z,32.72
2022-10-05T04:36:09.804Z,27.58
2022-10-05T04:39:00.126Z,21.45
2022-10-05T04:42:05.011Z,28.20
2022-10-05T04:44:49.238Z,26.33
2022-10-05T04:47:35.800Z,27.10
2022-10-05T04:50:29.593Z,24.02
2022-10-05T04:53:36.943Z,24.42
2022-10-05T04:56:20.109Z,23.98
2022-10-05T04:59:07.643Z,24.02
2022-10-05T05:01:54.647Z,24.48
2022-10-05T05:04:51.824Z,24.95
2022-10-05T05:07:37.321Z,25.08
2022-10-05T05:10:47.145Z,24.27
2022-10-05T05:13:52.599Z,25.23
2022-10-05T05:16:41.018Z,26.15
2022-10-05T05:19:18.692Z,22.40
2022-10-05T05:22:07.836Z,22.27
2022-10-05T05:24:47.386Z,22.00
2022-10-05T05:27:53.228Z,23.08
2022-10-05T05:30:27.597Z,25.92
2022-10-05T05:33:27.764Z,23.58
2022-10-05T05:36:08.572Z,25.67
2022-10-05T05:39:16.369Z,23.00
2022-10-05T05:42:22.139Z,16.58
2022-10-05T05:44:52.871Z,20.52
2022-10-05T05:47:27.439Z,22.77
2022-10-05T05:50:19.909Z,22.38
2022-10-05T05:52:53.183Z,27.60
2022-10-05T05:55:29.956Z,23.80
2022-10-05T05:58:04.344Z,21.25
2022-10-05T06:00:47.610Z,23.23
2022-10-05T06:03:26.109Z,28.80
2022-10-05T06:05:58.494Z,20.17
2022-10-05T06:08:37.115Z,23.55
2022-10-05T06:11:19.059Z,24.02
2022-10-05T06:13:47.714Z,25.98
2022-10-05T06:16:43.136Z,24.15
2022-10-05T06:19:16.599Z,20.52
2022-10-05T06:21:57.295Z,16.90
2022-10-05T06:24:38.430Z,16.83
2022-10-05T06:27:25.540Z,20.83
2022-10-05T06:29:54.562Z,25.08
2022-10-05T06:32:44.577Z,29.38
2022-10-05T06:35:35.025Z,21.00
2022-10-05T06:38:09.555Z,18.15
2022-10-05T06:41:02.183Z,16.77
2022-10-05T06:43:33.203Z,16.13
2022-10-05T06:46:28.437Z,15.75
2022-10-05T06:49:20.136Z,19.77
2022-10-05T06:52:15.739Z,16.27
2022-10-05T06:55:14.074Z,16.17
2022-10-05T06:58:22.293Z,28.85
2022-10-05T07:01:00.417Z,24.42
2022-10-05T07:04:05.608Z,17.52
2022-10-05T07:06:58.939Z,17.55
2022-10-05T07:12:13.240Z,18.05
2022-10-05T07:15:07.129Z,14.80
2022-10-05T07:17:55.210Z,18.40
2022-10-05T07:20:49.062Z,18.33
2022-10-05T07:23:25.868Z,16.35
2022-10-05T07:26:19.449Z,17.25
2022-10-05T07:28:52.988Z,21.80
2022-10-05T07:31:58.762Z,12.50
2022-10-05T07:34:51.974Z,16.60
2022-10-05T07:38:01.180Z,14.40
2022-10-05T07:40:39.780Z,21.83
2022-10-05T07:43:23.096Z,17.98
2022-10-05T07:46:06.590Z,13.63
2022-10-05T07:49:15.382Z,13.70
2022-10-05T07:51:48.941Z,17.95
2022-10-05T07:54:19.767Z,14.15
2022-10-05T07:57:18.791Z,16.50
2022-10-05T08:00:06.997Z,15.88
2022-10-05T08:02:49.582Z,14.57
2022-10-05T08:05:27.003Z,14.30
2022-10-05T08:08:19.651Z,10.35
2022-10-05T08:11:02.538Z,12.57
2022-10-05T08:13:47.605Z,14.73
2022-10-05T08:16:17.192Z,16.20
2022-10-05T08:18:59.626Z,10.27
2022-10-05T08:21:37.096Z,9.50
2022-10-05T08:24:23.684Z,16.58
2022-10-05T08:27:20.676Z,16.10
2022-10-05T08:30:12.441Z,16.92
2022-10-05T08:32:59.190Z,19.35
2022-10-05T08:35:34.630Z,15.15
2022-10-05T08:38:12.513Z,12.57
2022-10-05T08:40:43.718Z,13.27
2022-10-05T08:43:46.852Z,13.05
2022-10-05T08:46:52.414Z,13.27
2022-10-05T08:49:35.034Z,13.15
2022-10-05T08:55:27.468Z,12.50
2022-10-05T08:58:25.745Z,10.02
2022-10-05T09:01:15.915Z,13.20
2022-10-05T09:04:01.442Z,9.35
2022-10-05T09:07:04.402Z,12.45
2022-10-05T09:10:01.564Z,15.25
2022-10-05T09:12:48.152Z,11.18
2022-10-05T09:15:25.717Z,14.10
2022-10-05T09:18:32.410Z,9.45
2022-10-05T09:21:38.208Z,11.38
2022-10-05T09:24:57.501Z,13.45
2022-10-05T09:27:50.104Z,7.40
2022-10-05T09:30:29.011Z,8.07
2022-10-05T09:32:59.895Z,14.15
2022-10-05T09:36:05.493Z,9.50
2022-10-05T09:38:36.722Z,12.48
2022-10-05T09:41:20.035Z,14.05
2022-10-05T09:43:51.245Z,10.55
2022-10-05T09:46:37.611Z,10.82
2022-10-05T09:49:32.853Z,7.47
2022-10-05T09:52:20.613Z,7.63
2022-10-05T09:55:08.500Z,12.82
2022-10-05T09:57:55.455Z,9.43
2022-10-05T10:00:27.600Z,7.28
2022-10-05T10:03:19.818Z,8.07
2022-10-05T10:06:18.603Z,7.13
2022-10-05T10:09:25.571Z,7.03
2022-10-05T10:12:32.647Z,8.63
2022-10-05T10:15:38.760Z,9.57
2022-10-05T10:18:31.215Z,7.03
2022-10-05T10:21:26.614Z,10.10
2022-10-05T10:24:18.560Z,45.05
2022-10-05T10:26:58.766Z,8.23
2022-10-05T10:30:04.793Z,9.75
2022-10-05T10:32:57.528Z,8.73
2022-10-05T10:36:07.107Z,8.05
2022-10-05T10:38:58.792Z,8.98
2022-10-05T10:41:50.644Z,8.80
2022-10-05T10:44:56.524Z,10.82
2022-10-05T10:47:51.014Z,8.50
2022-10-05T10:50:28.451Z,8.32
2022-10-05T10:53:13.558Z,12.35
2022-10-05T10:56:19.580Z,10.65
2022-10-05T10:59:12.683Z,7.60
2022-10-05T11:02:08.273Z,8.73
2022-10-05T11:04:45.416Z,9.15
2022-10-05T11:07:45.063Z,7.07
2022-10-05T11:10:16.472Z,10.13
2022-10-05T11:13:22.243Z,11.07
2022-10-05T11:16:21.370Z,9.15
2022-10-05T11:19:07.740Z,10.60
2022-10-05T11:22:02.848Z,16.95
2022-10-05T11:25:07.879Z,9.45
2022-10-05T11:27:45.259Z,10.30
2022-10-05T11:30:31.743Z,8.75
2022-10-05T11:33:21.876Z,10.68
2022-10-05T11:36:18.031Z,13.70
2022-10-05T11:39:08.274Z,9.18
2022-10-05T11:41:57.835Z,8.98
2022-10-05T11:44:50.790Z,10.25
2022-10-05T11:47:45.962Z,10.33
2022-10-05T11:50:48.943Z,7.30
2022-10-05T11:54:01.596Z,7.18
2022-10-05T11:56:32.989Z,9.35
2022-10-05T11:59:40.007Z,11.93
2022-10-05T12:02:38.926Z,9.98
2022-10-05T12:05:32.449Z,6.82
2022-10-05T12:08:03.288Z,11.55
2022-10-05T12:11:01.179Z,7.28
2022-10-05T12:13:29.280Z,13.73
2022-10-05T12:16:15.493Z,8.90
2022-10-05T12:18:47.650Z,14.98
2022-10-05T12:21:24.064Z,8.30
2022-10-05T12:23:56.032Z,10.52
2022-10-05T12:26:28.204Z,11.75
2022-10-05T12:29:08.340Z,8.43
2022-10-05T12:31:53.976Z,7.68
2022-10-05T12:34:34.198Z,9.18
2022-10-05T12:37:09.900Z,9.25
2022-10-05T12:40:13.387Z,9.85
2022-10-05T12:43:05.011Z,9.98
2022-10-05T12:45:39.800Z,11.20
2022-10-05T12:48:29.882Z,9.02
2022-10-05T12:51:05.860Z,14.10
2022-10-05T12:53:55.940Z,12.10
2022-10-05T12:56:31.293Z,10.88
2022-10-05T12:59:20.617Z,15.05
2022-10-05T13:02:05.270Z,15.00
2022-10-05T13:04:53.357Z,14.80
2022-10-05T13:07:35.927Z,14.52
2022-10-05T13:10:28.351Z,9.27
2022-10-05T13:13:21.520Z,13.77
2022-10-05T13:16:11.855Z,10.67
2022-10-05T13:19:17.806Z,13.20
2022-10-05T13:22:10.916Z,10.88
2022-10-05T13:24:45.322Z,14.23
2022-10-05T13:27:19.199Z,12.95
2022-10-05T13:29:54.469Z,12.50
2022-10-05T13:32:37.049Z,10.60
2022-10-05T13:35:39.173Z,13.25
2022-10-05T13:38:28.473Z,12.65
2022-10-05T13:40:59.802Z,10.73
2022-10-05T13:43:39.584Z,14.25
2022-10-05T13:46:26.816Z,7.10
2022-10-05T13:49:19.899Z,15.48
2022-10-05T13:52:12.362Z,10.52
2022-10-05T13:54:54.473Z,9.32
2022-10-05T14:00:03.673Z,11.90
2022-10-05T14:02:41.009Z,14.32
2022-10-05T14:05:16.456Z,17.00
2022-10-05T14:08:03.318Z,8.88
2022-10-05T14:10:45.510Z,8.98
2022-10-05T14:13:50.429Z,12.45
2022-10-05T14:16:26.624Z,10.98
2022-10-05T14:19:05.247Z,12.35
2022-10-05T14:21:44.537Z,13.77
2022-10-05T14:24:44.766Z,19.48
2022-10-05T14:27:26.365Z,11.13
2022-10-05T14:30:00.773Z,10.40
2022-10-05T14:32:35.125Z,16.50
2022-10-05T14:35:18.553Z,17.15
2022-10-05T14:37:57.182Z,16.05
2022-10-05T14:40:44.447Z,18.13
2022-10-05T14:43:21.707Z,13.27
2022-10-05T14:46:01.474Z,15.52
2022-10-05T14:48:40.450Z,15.77
2022-10-05T14:51:32.018Z,16.02
2022-10-05T14:54:01.678Z,12.23
2022-10-05T14:56:43.566Z,11.68
2022-10-05T14:59:33.171Z,11.25
2022-10-05T15:02:11.343Z,12.73
2022-10-05T15:04:58.800Z,12.07
2022-10-05T15:07:31.532Z,16.30
2022-10-05T15:10:26.823Z,9.75
2022-10-05T15:12:58.442Z,14.68
2022-10-05T15:15:37.603Z,11.98
2022-10-05T15:18:31.819Z,11.80
2022-10-05T15:21:42.641Z,14.25
2022-10-05T15:24:20.503Z,9.82
2022-10-05T15:26:57.613Z,39.53
2022-10-05T15:29:54.952Z,17.50
2022-10-05T15:32:41.941Z,18.63
2022-10-05T15:35:18.766Z,16.05
2022-10-05T15:38:21.159Z,17.63
2022-10-05T15:40:51.711Z,15.70
2022-10-05T15:43:23.637Z,15.13
2022-10-05T15:46:02.845Z,12.00
2022-10-05T15:49:00.840Z,12.80
2022-10-05T15:51:45.423Z,12.90
2022-10-05T15:54:44.478Z,11.05
2022-10-05T15:57:37.557Z,25.55
2022-10-05T16:00:12.354Z,13.67
2022-10-05T16:02:54.718Z,11.73
2022-10-05T16:06:03.351Z,14.68
2022-10-05T16:08:52.803Z,16.58
2022-10-05T16:11:32.409Z,12.23
2022-10-05T16:14:28.501Z,11.85
2022-10-05T16:17:11.644Z,15.13
2022-10-05T16:19:59.057Z,11.90
2022-10-05T16:22:43.700Z,11.10
2022-10-05T16:25:16.271Z,14.50
2022-10-05T16:27:59.529Z,11.80
2022-10-05T16:30:35.341Z,13.55
2022-10-05T16:36:03.330Z,14.63
2022-10-05T16:38:55.740Z,13.68
2022-10-05T16:41:48.045Z,11.65
2022-10-05T16:44:34.294Z,10.63
2022-10-05T16:47:28.339Z,16.88
2022-10-05T16:50:21.519Z,8.48
2022-10-05T16:53:16.133Z,10.80
2022-10-05T16:55:49.537Z,11.85
2022-10-05T16:58:21.096Z,33.35
2022-10-05T17:01:05.819Z,17.67
2022-10-05T17:03:57.616Z,11.80
2022-10-05T17:06:28.192Z,11.98
2022-10-05T17:09:09.723Z,15.13
2022-10-05T17:12:11.805Z,16.42
2022-10-05T17:14:58.410Z,12.10
2022-10-05T17:17:32.042Z,11.18
2022-10-05T17:20:19.353Z,15.05
2022-10-05T17:22:55.541Z,14.65
2022-10-05T17:25:57.624Z,13.75
2022-10-05T17:29:14.758Z,11.23
2022-10-05T17:32:20.189Z,13.30
2022-10-05T17:35:03.172Z,15.65
2022-10-05T17:37:40.341Z,12.07
2022-10-05T17:40:30.631Z,14.90
2022-10-05T17:43:26.123Z,13.35
2022-10-05T17:46:07.791Z,14.05
2022-10-05T17:49:00.092Z,12.38
2022-10-05T17:51:47.120Z,12.93
2022-10-05T17:55:08.762Z,14.32
2022-10-05T17:57:37.439Z,15.88
2022-10-05T18:00:42.269Z,19.50
2022-10-05T18:03:41.224Z,14.88
2022-10-05T18:06:34.636Z,18.00
2022-10-05T18:09:12.055Z,14.40
2022-10-05T18:11:49.769Z,17.40
2022-10-05T18:14:27.020Z,16.83
2022-10-05T18:17:00.754Z,18.70
2022-10-05T18:19:33.596Z,19.30
2022-10-05T18:22:16.956Z,15.75
2022-10-05T18:25:05.953Z,15.02
2022-10-05T18:27:39.722Z,17.65
2022-10-05T18:30:27.029Z,14.80
2022-10-05T18:32:58.490Z,15.73
2022-10-05T18:35:53.327Z,16.15
2022-10-05T18:38:58.835Z,14.65
2022-10-05T18:41:30.112Z,15.65
2022-10-05T18:44:03.932Z,17.52
2022-10-05T18:46:51.172Z,19.35
2022-10-05T18:49:46.459Z,13.77
2022-10-05T18:52:25.266Z,14.57
2022-10-05T18:55:16.629Z,15.32
2022-10-05T18:57:55.775Z,14.77
2022-10-05T19:00:24.976Z,16.42
2022-10-05T19:03:04.078Z,19.50
2022-10-05T19:05:54.670Z,13.48
2022-10-05T19:08:41.143Z,14.68
2022-10-05T19:11:28.422Z,19.98
2022-10-05T19:14:21.006Z,14.82
2022-10-05T19:17:21.957Z,16.55
2022-10-05T19:20:00.583Z,12.57
2022-10-05T19:23:19.959Z,16.90
2022-10-05T19:25:48.619Z,19.95
2022-10-05T19:28:24.474Z,25.98
2022-10-05T19:31:11.535Z,13.48
2022-10-05T19:33:45.959Z,10.90
2022-10-05T19:36:49.003Z,12.90
2022-10-05T19:39:55.940Z,11.95
2022-10-05T19:43:04.028Z,13.65
2022-10-05T19:45:41.408Z,12.93
2022-10-05T19:48:28.255Z,13.13
2022-10-05T19:51:00.924Z,11.30
2022-10-05T19:53:46.100Z,13.18
2022-10-05T19:56:20.490Z,12.68
2022-10-05T19:58:50.116Z,11.40
2022-10-05T20:01:33.706Z,15.10
2022-10-05T20:04:02.109Z,11.93
2022-10-05T20:06:32.463Z,12.82
2022-10-05T20:09:19.710Z,13.60
2022-10-05T20:11:52.556Z,16.30
2022-10-05T20:14:29.225Z,13.45
2022-10-05T20:17:45.644Z,11.70
2022-10-05T20:20:25.358Z,24.48
2022-10-05T20:22:53.105Z,21.52
2022-10-05T20:25:21.247Z,12.73
2022-10-05T20:27:51.554Z,14.15
2022-10-05T20:30:25.047Z,11.65
2022-10-05T20:33:01.198Z,14.57
2022-10-05T20:35:33.006Z,11.40
2022-10-05T20:38:04.617Z,15.82
2022-10-05T20:40:36.071Z,12.52
2022-10-05T20:43:05.729Z,14.18
2022-10-05T20:45:33.881Z,9.48
2022-10-05T20:48:03.809Z,15.93
2022-10-05T20:50:32.644Z,14.05
2022-10-05T20:53:00.757Z,25.35
2022-10-05T20:55:31.809Z,13.20
2022-10-05T20:58:00.571Z,14.98
2022-10-05T21:00:52.043Z,15.02
2022-10-05T21:03:20.933Z,14.23
2022-10-05T21:05:48.914Z,14.30
2022-10-05T21:08:18.277Z,12.25
2022-10-05T21:10:46.236Z,29.35
2022-10-05T21:13:14.854Z,14.88
2022-10-05T21:15:45.108Z,10.60
2022-10-05T21:18:12.929Z,13.43
2022-10-05T21:20:45.614Z,13.55
2022-10-05T21:23:15.889Z,13.40
2022-10-05T21:25:43.805Z,12.07
2022-10-05T21:28:12.096Z,13.30
2022-10-05T21:30:40.466Z,15.93
2022-10-05T21:33:08.735Z,16.60
2022-10-05T21:35:37.294Z,15.82
2022-10-05T21:38:05.936Z,11.48
2022-10-05T21:40:34.455Z,14.35
2022-10-05T21:43:02.974Z,15.00
2022-10-05T21:45:31.632Z,12.45
2022-10-05T21:48:00.223Z,14.43
2022-10-05T21:50:28.158Z,15.23
2022-10-05T21:52:56.679Z,15.65
2022-10-05T21:55:24.585Z,14.32
2022-10-05T21:57:53.064Z,14.57
2022-10-05T22:00:21.654Z,12.40
2022-10-05T22:02:50.096Z,15.43
2022-10-05T22:05:18.169Z,15.18
2022-10-05T22:07:46.667Z,14.27
2022-10-05T22:10:15.109Z,17.67
2022-10-05T22:12:43.535Z,13.65
2022-10-05T22:15:12.064Z,19.80
2022-10-05T22:17:40.774Z,15.25
2022-10-05T22:20:13.070Z,18.52
2022-10-05T22:22:41.850Z,13.70
2022-10-05T22:25:10.216Z,16.48
2022-10-05T22:27:38.253Z,16.80
2022-10-05T22:30:07.784Z,13.43
2022-10-05T22:32:36.245Z,18.38
2022-10-05T22:35:07.842Z,19.13
2022-10-05T22:37:39.391Z,14.20
2022-10-05T22:40:08.666Z,18.83
2022-10-05T22:42:36.881Z,15.98
2022-10-05T22:45:10.196Z,15.27
2022-10-05T22:50:07.338Z,12.27
2022-10-05T22:52:35.631Z,14.95
2022-10-05T22:55:05.096Z,15.18
2022-10-05T22:57:45.447Z,16.52
2022-10-05T23:00:13.578Z,17.33
2022-10-05T23:02:44.428Z,13.98
2022-10-05T23:05:17.550Z,18.60
2022-10-05T23:07:49.819Z,14.32
2022-10-05T23:10:18.991Z,13.40
2022-10-05T23:12:59.666Z,15.23
2022-10-05T23:15:28.884Z,16.45
2022-10-05T23:17:57.626Z,16.85
2022-10-05T23:20:26.169Z,19.73
2022-10-05T23:22:54.056Z,16.38
2022-10-05T23:25:22.833Z,16.85
2022-10-05T23:27:50.513Z,16.00
2022-10-05T23:30:18.726Z,14.73
2022-10-05T23:32:47.559Z,17.45
2022-10-05T23:35:16.706Z,19.27
2022-10-05T23:37:44.927Z,15.82
2022-10-05T23:40:14.574Z,20.80
2022-10-05T23:42:43.074Z,18.60
2022-10-05T23:45:12.663Z,16.58
2022-10-05T23:47:41.511Z,16.58
2022-10-05T23:50:10.806Z,14.93
2022-10-05T23:52:39.201Z,15.75
2022-10-05T23:55:08.084Z,15.35
2022-10-05T23:57:35.818Z,18.80
